Hinigaran, Philippines
Current Conditions -  °F | °C
As of 6:00 PM on Friday 19 Dec 2014 (Local Time) from RPVM Reporting Station
Overcast Overcast  
Wind Chill: 79°   Ceiling: 9000
Heat Index: 82°   Visibility: 6mi
Dew Point: 75°   Wind: 10mph
Humidity: 89%   Direction: 360°N
Pressure: 29.88"   Gusts: NA
Location:  10.27°N, 122.85°E
Report Text: RPVM 191000Z 36009KT 9999 FEW020 OVC090 26/24 Q1012 RMK A2988
Loading
Personal Weather Stations






























Interactive Weather Map New forecast layout! Learn more

10-Day Weather Forecast

Advertisements
Track Severe Weather on mobile